Time;durP1;ratioP1;P1;durP2;ratioP2;P2;SDS_P1;SDS_P2;PMS_P1;PMS_P2;Temp;Humidity;BMP_temperature;BMP_pressure;BME280_temperature;BME280_humidity;BME280_pressure;Samples;Min_cycle;Max_cycle;Signal;HPM_P1;HPM_P2
2022/09/22 00:01:01;;;;;;;10.52;2.80;;;;;;;16.50;100.00;100889.47;4956404;29;20130;-92
2022/09/22 00:03:29;;;;;;;;;;;;;;;16.65;100.00;100900.94;4957142;29;20067;-93
2022/09/22 00:06:09;;;;;;;7.00;2.78;;;;;;;16.60;100.00;100895.06;4959730;28;19977;-92
2022/09/22 00:08:38;;;;;;;7.05;2.17;;;;;;;16.75;100.00;100888.84;4960716;28;20062;-92
2022/09/22 00:11:17;;;;;;;7.32;2.80;;;;;;;16.42;100.00;100846.81;4960579;28;20491;-92
2022/09/22 00:13:53;;;;;;;7.32;2.33;;;;;;;16.54;100.00;100839.91;4977183;28;20054;-92
2022/09/22 00:16:28;;;;;;;8.23;2.33;;;;;;;16.66;100.00;100878.81;4959929;28;20051;-92
2022/09/22 00:18:55;;;;;;;9.90;2.70;;;;;;;16.51;100.00;100846.25;4959874;28;20037;-92
2022/09/22 00:21:26;;;;;;;8.38;2.30;;;;;;;16.45;100.00;100831.63;4960369;28;20550;-92
2022/09/22 00:23:54;;;;;;;13.48;3.20;;;;;;;16.45;100.00;100883.59;4959870;28;20065;-92
2022/09/22 00:26:22;;;;;;;15.82;2.90;;;;;;;16.30;100.00;100843.09;4948674;29;20130;-92
2022/09/22 00:28:51;;;;;;;8.90;2.50;;;;;;;16.41;100.00;100860.97;4940186;29;20051;-92
2022/09/22 00:31:23;;;;;;;12.00;2.63;;;;;;;16.44;100.00;100864.25;4941669;29;20505;-93
2022/09/22 00:33:52;;;;;;;10.65;2.67;;;;;;;16.74;100.00;100881.00;4967713;28;20093;-93
2022/09/22 00:36:21;;;;;;;7.45;2.13;;;;;;;16.69;100.00;100858.34;4976365;28;20067;-93
2022/09/22 00:38:50;;;;;;;6.63;1.98;;;;;;;16.62;100.00;100875.50;4975644;28;20051;-92
2022/09/22 00:41:29;;;;;;;10.02;3.25;;;;;;;16.56;100.00;100878.53;4975515;28;20061;-92
2022/09/22 00:44:36;;;;;;;14.57;2.83;;;;;;;16.42;100.00;100860.88;4975407;28;20446;-91
2022/09/22 00:47:28;;;;;;;9.07;2.50;;;;;;;16.53;100.00;100839.06;4900401;29;20087;-92
2022/09/22 00:50:04;;;;;;;11.30;2.88;;;;;;;16.37;100.00;100814.53;4975428;28;20047;-92
2022/09/22 00:52:36;;;;;;;7.90;2.75;;;;;;;16.64;100.00;100855.16;4958248;28;20054;-92
2022/09/22 00:55:07;;;;;;;9.65;2.65;;;;;;;16.43;100.00;100828.22;4949464;29;20055;-92
2022/09/22 00:57:38;;;;;;;10.57;2.78;;;;;;;16.29;100.00;100801.78;4954852;28;20051;-92
2022/09/22 01:00:08;;;;;;;7.70;2.40;;;;;;;16.65;100.00;100848.06;4958814;28;20055;-92
2022/09/22 01:02:36;;;;;;;7.30;2.60;;;;;;;16.41;100.00;100837.19;4958277;28;20051;-92
2022/09/22 01:05:04;;;;;;;8.57;2.45;;;;;;;16.43;100.00;100822.94;4953974;29;20059;-91
2022/09/22 01:07:31;;;;;;;9.88;2.58;;;;;;;16.48;100.00;100812.94;4958078;28;20121;-91
2022/09/22 01:09:58;;;;;;;6.63;2.10;;;;;;;16.52;100.00;100798.59;4958265;28;20460;-91
2022/09/22 01:12:28;;;;;;;8.10;2.70;;;;;;;16.59;100.00;100830.78;4957857;28;20050;-92
2022/09/22 01:15:13;;;;;;;8.88;2.92;;;;;;;16.67;100.00;100841.72;4953270;29;20063;-89
2022/09/22 01:18:02;;;;;;;7.00;2.30;;;;;;;16.72;100.00;100832.69;4959368;28;20083;-91
2022/09/22 01:20:32;;;;;;;9.25;2.33;;;;;;;16.72;100.00;100830.88;4938592;28;20047;-91
2022/09/22 01:23:05;;;;;;;8.25;2.58;;;;;;;16.53;100.00;100820.56;4948898;28;20046;-92
2022/09/22 01:25:59;;;;;;;11.02;3.05;;;;;;;16.13;100.00;100767.53;4959101;28;20046;-93
2022/09/22 01:28:28;;;;;;;10.18;2.70;;;;;;;16.56;100.00;100822.19;4958954;28;20117;-92
2022/09/22 01:31:02;;;;;;;10.10;3.10;;;;;;;16.56;100.00;100809.81;4958422;28;20051;-92
2022/09/22 01:33:57;;;;;;;8.25;2.40;;;;;;;16.70;100.00;100801.03;4956505;28;20054;-91
2022/09/22 01:36:40;;;;;;;7.38;2.60;;;;;;;16.62;100.00;100806.78;4975799;28;20058;-92
2022/09/22 01:39:13;;;;;;;9.10;2.70;;;;;;;16.51;100.00;100796.03;4958425;28;20055;-91
2022/09/22 01:42:15;;;;;;;8.10;2.63;;;;;;;16.62;100.00;100790.09;4958811;28;20058;-91
2022/09/22 01:44:53;;;;;;;8.93;2.58;;;;;;;16.51;100.00;100767.81;4951080;29;20047;-91
2022/09/22 01:47:25;;;;;;;9.07;3.05;;;;;;;16.47;100.00;100771.59;4958480;28;20103;-90
2022/09/22 01:49:58;;;;;;;8.57;2.63;;;;;;;16.46;100.00;100750.53;4962162;28;20058;-91
2022/09/22 01:52:28;;;;;;;9.57;2.45;;;;;;;16.76;100.00;100771.56;4962131;28;20061;-92
2022/09/22 01:55:04;;;;;;;10.05;3.03;;;;;;;16.49;100.00;100772.34;4962186;28;20058;-92
2022/09/22 01:57:50;;;;;;;6.70;2.28;;;;;;;16.63;100.00;100755.63;4962223;28;20058;-92
2022/09/22 02:00:17;;;;;;;7.07;2.30;;;;;;;16.56;100.00;100740.25;4962132;28;20059;-92
2022/09/22 02:03:09;;;;;;;6.53;2.10;;;;;;;16.64;100.00;100745.91;4962172;28;20058;-91
2022/09/22 02:05:48;;;;;;;9.82;2.20;;;;;;;16.80;100.00;100740.50;4962367;28;20129;-92
2022/09/22 02:08:31;;;;;;;10.73;2.60;;;;;;;16.48;100.00;100741.59;4958650;29;20048;-92
2022/09/22 02:11:08;;;;;;;8.25;2.10;;;;;;;16.75;100.00;100739.94;4958654;28;20125;-92
2022/09/22 02:13:35;;;;;;;8.20;2.65;;;;;;;16.62;100.00;100729.28;4961859;28;20096;-92
2022/09/22 02:16:04;;;;;;;7.53;2.38;;;;;;;16.59;100.00;100735.63;4948273;28;20046;-92
2022/09/22 02:18:42;;;;;;;7.25;2.35;;;;;;;16.74;100.00;100736.44;4962018;28;20050;-92
2022/09/22 02:21:09;;;;;;;7.60;2.53;;;;;;;16.79;100.00;100731.72;4962071;28;20051;-93
2022/09/22 02:23:37;;;;;;;8.77;2.50;;;;;;;16.73;100.00;100750.59;4961298;28;20129;-92
2022/09/22 02:26:05;;;;;;;8.13;2.35;;;;;;;16.81;100.00;100743.03;4961575;28;20106;-92
2022/09/22 02:28:37;;;;;;;8.70;2.65;;;;;;;16.66;100.00;100707.00;4960883;28;20462;-91
2022/09/22 02:31:08;;;;;;;8.38;2.47;;;;;;;16.97;100.00;100753.53;4961279;28;20055;-92
2022/09/22 02:33:51;;;;;;;6.10;1.77;;;;;;;16.75;100.00;100701.13;4966747;28;20051;-91
2022/09/22 02:36:49;;;;;;;6.57;2.00;;;;;;;16.73;100.00;100705.66;4957373;29;20051;-91
2022/09/22 02:39:29;;;;;;;7.40;2.47;;;;;;;16.79;100.00;100750.22;4960442;28;20054;-91
2022/09/22 02:42:05;;;;;;;6.25;1.98;;;;;;;16.94;100.00;100743.13;4961336;28;20489;-92
2022/09/22 02:44:51;;;;;;;6.15;2.00;;;;;;;16.57;100.00;100729.56;4961350;28;20051;-92
2022/09/22 02:47:38;;;;;;;5.75;1.98;;;;;;;16.67;100.00;100743.06;4961098;28;20067;-92
2022/09/22 02:50:09;;;;;;;8.07;2.38;;;;;;;16.32;100.00;100673.00;4963817;28;20058;-92
2022/09/22 02:52:38;;;;;;;4.82;1.70;;;;;;;16.80;100.00;100701.69;4961083;28;20074;-92
2022/09/22 02:55:07;;;;;;;8.00;2.55;;;;;;;16.63;100.00;100700.13;4960868;28;20050;-91
2022/09/22 02:57:33;;;;;;;5.43;2.20;;;;;;;16.64;100.00;100672.75;4960322;28;20105;-92
2022/09/22 03:00:01;;;;;;;6.97;2.15;;;;;;;16.36;100.00;100657.81;4943895;29;20051;-92
2022/09/22 03:02:28;;;;;;;5.75;1.80;;;;;;;16.49;100.00;100671.91;4960636;28;20051;-92
2022/09/22 03:04:56;;;;;;;6.47;1.90;;;;;;;16.50;100.00;100686.84;4957042;29;20685;-92
2022/09/22 03:07:23;;;;;;;7.53;2.47;;;;;;;16.43;100.00;100697.88;4941197;29;20119;-92
2022/09/22 03:09:49;;;;;;;4.88;1.80;;;;;;;16.42;100.00;100661.84;4960600;28;20055;-92
2022/09/22 03:12:16;;;;;;;9.05;2.53;;;;;;;16.48;100.00;100641.16;4960473;28;20109;-92
2022/09/22 03:14:43;;;;;;;10.52;2.50;;;;;;;16.43;100.00;100659.09;4946603;28;20047;-92
2022/09/22 03:17:10;;;;;;;7.68;2.30;;;;;;;16.46;100.00;100650.97;4960564;28;20101;-93
2022/09/22 03:19:36;;;;;;;8.40;2.33;;;;;;;16.69;100.00;100685.66;4960438;28;20051;-93
2022/09/22 03:22:03;;;;;;;6.03;1.90;;;;;;;16.30;100.00;100627.31;4960107;28;20057;-92
2022/09/22 03:24:30;;;;;;;12.18;2.90;;;;;;;16.55;100.00;100675.13;4959891;28;20477;-91
2022/09/22 03:26:57;;;;;;;6.47;2.38;;;;;;;16.39;100.00;100636.44;4956287;28;20058;-91
2022/09/22 03:29:23;;;;;;;6.40;1.67;;;;;;;16.67;100.00;100663.75;4949059;28;20105;-91
2022/09/22 03:31:50;;;;;;;7.80;2.30;;;;;;;16.63;100.00;100660.47;4976823;28;20047;-92
2022/09/22 03:34:17;;;;;;;7.95;2.00;;;;;;;16.66;100.00;100625.91;4959511;28;20078;-91
2022/09/22 03:36:43;;;;;;;8.85;2.05;;;;;;;16.39;100.00;100623.22;4959731;28;20481;-91
2022/09/22 03:39:10;;;;;;;8.50;2.03;;;;;;;16.51;100.00;100633.03;4960282;28;20508;-91
2022/09/22 03:41:37;;;;;;;8.65;2.22;;;;;;;16.26;100.00;100593.28;4956207;28;20121;-91
2022/09/22 03:44:04;;;;;;;4.13;1.40;;;;;;;16.67;100.00;100630.25;4956655;28;20086;-91
2022/09/22 03:46:31;;;;;;;5.30;1.60;;;;;;;16.62;100.00;100626.19;4958593;28;20047;-91
2022/09/22 03:48:58;;;;;;;8.15;2.05;;;;;;;16.34;100.00;100593.63;4949986;28;20050;-91
2022/09/22 03:51:25;;;;;;;6.15;1.77;;;;;;;16.60;100.00;100625.47;4959952;28;20129;-92
2022/09/22 03:53:53;;;;;;;5.53;1.70;;;;;;;16.19;100.00;100611.28;4959804;28;20055;-92
2022/09/22 03:56:20;;;;;;;6.35;1.90;;;;;;;16.46;100.00;100616.59;4959897;28;20474;-92
2022/09/22 03:58:46;;;;;;;6.95;2.38;;;;;;;16.41;100.00;100647.75;4959553;28;20117;-90
2022/09/22 04:01:13;;;;;;;4.25;1.50;;;;;;;16.33;100.00;100615.72;4957657;28;20401;-90
2022/09/22 04:03:40;;;;;;;6.47;1.85;;;;;;;16.21;100.00;100598.00;4959322;28;20105;-93
2022/09/22 04:06:09;;;;;;;8.50;1.70;;;;;;;16.19;100.00;100599.91;4959538;28;20050;-90
2022/09/22 04:08:36;;;;;;;5.78;1.60;;;;;;;16.62;100.00;100628.84;4969021;28;20054;-91
2022/09/22 04:11:04;;;;;;;5.97;1.95;;;;;;;16.47;100.00;100601.63;4959180;28;20085;-92
2022/09/22 04:13:30;;;;;;;7.75;1.60;;;;;;;16.34;100.00;100590.97;4958875;28;20097;-92
2022/09/22 04:15:57;;;;;;;8.02;2.00;;;;;;;16.22;100.00;100605.81;4959271;28;20102;-91
2022/09/22 04:18:25;;;;;;;7.05;1.80;;;;;;;16.48;100.00;100620.03;4959874;28;20062;-91
2022/09/22 04:20:57;;;;;;;8.00;1.88;;;;;;;16.38;100.00;100626.84;4957994;28;20054;-90
2022/09/22 04:23:25;;;;;;;5.93;1.80;;;;;;;16.51;100.00;100632.19;4958165;28;20121;-90
2022/09/22 04:25:52;;;;;;;7.80;1.98;;;;;;;16.36;100.00;100604.09;4955547;28;20106;-90
2022/09/22 04:28:18;;;;;;;5.28;1.77;;;;;;;16.33;100.00;100591.94;4957651;28;20093;-91
2022/09/22 04:30:46;;;;;;;8.85;2.10;;;;;;;16.29;100.00;100571.94;4950445;28;20069;-90
2022/09/22 04:33:13;;;;;;;6.05;1.95;;;;;;;16.67;100.00;100634.69;4957344;28;20050;-92
2022/09/22 04:35:39;;;;;;;6.28;2.05;;;;;;;16.44;100.00;100592.06;4957490;28;20113;-91
2022/09/22 04:38:06;;;;;;;5.60;1.77;;;;;;;16.51;100.00;100608.41;4957650;28;20055;-91
2022/09/22 04:40:33;;;;;;;6.35;1.80;;;;;;;16.58;100.00;100614.13;4972179;28;20101;-91
2022/09/22 04:43:00;;;;;;;5.65;1.70;;;;;;;16.79;100.00;100628.59;4946405;28;20147;-91
2022/09/22 04:45:26;;;;;;;6.93;2.47;;;;;;;16.67;100.00;100589.75;4974834;28;20406;-91
2022/09/22 04:47:53;;;;;;;7.40;2.38;;;;;;;16.26;100.00;100562.41;4968902;28;20058;-91
2022/09/22 04:50:21;;;;;;;9.50;2.25;;;;;;;16.41;100.00;100583.50;4951281;28;20050;-92
2022/09/22 04:52:51;;;;;;;8.05;2.13;;;;;;;16.79;100.00;100627.75;4958397;28;20057;-92
2022/09/22 04:55:19;;;;;;;8.65;2.30;;;;;;;16.58;100.00;100593.00;4956913;28;20046;-93
2022/09/22 04:57:47;;;;;;;8.07;2.05;;;;;;;16.66;100.00;100606.53;4954670;29;20051;-93
2022/09/22 05:00:15;;;;;;;9.10;2.40;;;;;;;16.60;100.00;100591.94;4958266;28;20449;-92
2022/09/22 05:02:42;;;;;;;7.75;2.42;;;;;;;16.60;100.00;100601.66;4957909;28;20055;-92
2022/09/22 05:05:09;;;;;;;6.75;2.08;;;;;;;16.54;100.00;100579.13;4957993;28;20062;-92
2022/09/22 05:07:44;;;;;;;7.00;1.80;;;;;;;16.57;100.00;100602.69;4957681;28;20050;-92
2022/09/22 05:10:12;;;;;;;9.55;2.22;;;;;;;16.39;100.00;100558.97;4956825;28;20086;-91
2022/09/22 05:12:39;;;;;;;9.20;2.30;;;;;;;16.27;100.00;100577.31;4941838;29;20407;-91
2022/09/22 05:15:08;;;;;;;7.68;2.08;;;;;;;16.42;100.00;100588.69;4951374;28;20050;-92
2022/09/22 05:17:35;;;;;;;7.55;2.10;;;;;;;16.20;100.00;100591.00;4964230;28;20059;-92
2022/09/22 05:20:04;;;;;;;10.30;1.63;;;;;;;16.48;100.00;100590.09;4957432;28;20062;-92
2022/09/22 05:22:31;;;;;;;7.63;2.10;;;;;;;16.48;100.00;100613.88;4958447;28;20050;-91
2022/09/22 05:25:07;;;;;;;6.53;1.80;;;;;;;16.24;100.00;100566.13;4959120;28;20047;-91
2022/09/22 05:27:34;;;;;;;5.80;1.60;;;;;;;16.40;100.00;100579.19;4957837;28;20456;-91
2022/09/22 05:30:01;;;;;;;3.13;1.33;;;;;;;16.28;100.00;100560.50;4957579;28;20051;-90
2022/09/22 05:32:28;;;;;;;7.07;1.63;;;;;;;16.27;100.00;100579.09;4957874;28;20109;-91
2022/09/22 05:34:55;;;;;;;6.30;2.03;;;;;;;16.40;100.00;100584.47;4950691;28;20051;-88
2022/09/22 05:37:22;;;;;;;5.97;1.67;;;;;;;16.27;100.00;100571.19;4966952;28;20066;-89
2022/09/22 05:39:48;;;;;;;4.80;1.73;;;;;;;16.14;100.00;100569.31;4945209;28;20109;-88
2022/09/22 05:42:15;;;;;;;7.60;2.00;;;;;;;16.06;100.00;100576.91;4968583;28;20057;-88
2022/09/22 05:44:42;;;;;;;8.48;2.10;;;;;;;16.23;100.00;100553.84;4953738;28;20082;-89
2022/09/22 05:47:08;;;;;;;7.70;1.92;;;;;;;16.16;100.00;100557.81;4971317;28;20054;-90
2022/09/22 05:49:35;;;;;;;6.10;2.15;;;;;;;16.14;100.00;100568.47;4949947;28;20055;-90
2022/09/22 05:52:02;;;;;;;9.82;2.60;;;;;;;16.07;100.00;100588.28;4948640;28;20066;-90
2022/09/22 05:54:28;;;;;;;8.18;2.20;;;;;;;16.10;100.00;100549.34;4952136;28;20047;-89
2022/09/22 05:56:55;;;;;;;8.27;2.72;;;;;;;16.13;100.00;100548.31;4956728;28;20055;-89
2022/09/22 05:59:22;;;;;;;8.77;2.15;;;;;;;16.16;100.00;100569.22;4950457;28;20058;-89
2022/09/22 06:01:48;;;;;;;7.88;1.98;;;;;;;16.05;100.00;100554.06;4966875;28;20051;-89
2022/09/22 06:04:15;;;;;;;9.63;2.30;;;;;;;15.90;100.00;100541.81;4954500;28;20047;-90
2022/09/22 06:06:42;;;;;;;7.32;2.22;;;;;;;16.19;100.00;100591.97;4956627;28;20062;-94
2022/09/22 06:09:09;;;;;;;5.80;1.70;;;;;;;16.29;100.00;100598.38;4958334;28;20496;-92
2022/09/22 06:11:36;;;;;;;7.65;1.77;;;;;;;16.18;100.00;100598.19;4957220;28;20471;-93
2022/09/22 06:14:02;;;;;;;6.80;1.98;;;;;;;16.34;100.00;100620.03;4956970;28;20054;-92
2022/09/22 06:16:30;;;;;;;8.65;2.22;;;;;;;16.37;100.00;100608.44;4952640;28;20141;-92
2022/09/22 06:18:57;;;;;;;7.70;2.60;;;;;;;16.35;100.00;100631.47;4973584;28;20043;-93
2022/09/22 06:21:24;;;;;;;7.20;2.03;;;;;;;16.26;100.00;100601.19;4953885;28;20110;-92
2022/09/22 06:23:51;;;;;;;5.55;1.77;;;;;;;16.20;100.00;100597.16;4947482;28;20051;-91
2022/09/22 06:26:18;;;;;;;6.07;1.40;;;;;;;16.37;100.00;100611.09;4950160;28;20117;-92
2022/09/22 06:28:45;;;;;;;6.53;2.03;;;;;;;16.22;100.00;100610.25;4952093;28;20485;-92
2022/09/22 06:31:13;;;;;;;11.55;3.03;;;;;;;16.16;100.00;100613.28;4970488;28;20520;-92
2022/09/22 06:33:54;;;;;;;8.10;2.22;;;;;;;16.12;100.00;100596.78;4977858;28;20074;-92
2022/09/22 06:36:36;;;;;;;6.20;1.67;;;;;;;16.44;100.00;100622.94;4976948;28;20063;-93
2022/09/22 06:39:16;;;;;;;7.15;1.95;;;;;;;16.33;100.00;100607.78;4964750;28;20058;-92
2022/09/22 06:41:59;;;;;;;4.97;1.70;;;;;;;15.85;100.00;100544.75;4979077;28;20046;-92
2022/09/22 06:44:40;;;;;;;7.97;2.17;;;;;;;15.28;100.00;100489.34;4971190;28;20050;-92
2022/09/22 06:47:21;;;;;;;7.40;2.00;;;;;;;15.49;100.00;100511.78;4973281;28;20119;-92
2022/09/22 06:50:04;;;;;;;7.03;2.30;;;;;;;15.77;100.00;100544.38;4970798;28;20067;-92
2022/09/22 06:52:45;;;;;;;9.35;2.80;;;;;;;15.74;100.00;100544.53;4977127;28;20059;-91
2022/09/22 06:55:30;;;;;;;6.60;1.98;;;;;;;16.08;100.00;100582.94;4960784;29;20126;-91
2022/09/22 06:58:11;;;;;;;6.03;2.28;;;;;;;16.23;100.00;100604.03;4971823;28;20078;-91
2022/09/22 07:00:52;;;;;;;7.32;2.08;;;;;;;15.96;100.00;100570.50;4972961;28;20057;-92
2022/09/22 07:03:35;;;;;;;7.13;1.73;;;;;;;16.17;100.00;100601.78;4971644;28;20050;-92
2022/09/22 07:06:17;;;;;;;6.75;1.85;;;;;;;16.11;100.00;100590.66;4973946;28;20058;-87
2022/09/22 07:08:58;;;;;;;3.80;1.35;;;;;;;15.92;100.00;100550.50;4977527;28;20062;-92
2022/09/22 07:11:38;;;;;;;6.32;1.75;;;;;;;16.23;100.00;100596.09;4973144;28;20051;-92
2022/09/22 07:14:07;;;;;;;3.83;1.13;;;;;;;16.20;100.00;100565.47;4989031;28;20486;-92
2022/09/22 07:16:51;;;;;;;4.82;1.65;;;;;;;16.14;100.00;100579.88;4975318;28;20057;-90
2022/09/22 07:19:35;;;;;;;6.15;1.25;;;;;;;16.29;100.00;100591.28;4977102;28;20037;-90
2022/09/22 07:22:17;;;;;;;5.88;1.73;;;;;;;16.29;100.00;100593.94;4973497;28;20046;-91
2022/09/22 07:24:59;;;;;;;4.65;1.50;;;;;;;16.43;100.00;100606.25;4966298;28;20054;-90
2022/09/22 07:27:39;;;;;;;5.30;1.85;;;;;;;16.19;100.00;100562.91;4970527;28;20058;-90
2022/09/22 07:30:21;;;;;;;7.95;1.80;;;;;;;16.47;100.00;100612.19;4961129;28;20049;-90
2022/09/22 07:33:01;;;;;;;3.28;1.40;;;;;;;16.23;100.00;100585.53;4962343;28;20034;-90
2022/09/22 07:35:43;;;;;;;5.80;1.63;;;;;;;16.46;100.00;100608.69;4962871;28;20055;-89
2022/09/22 07:38:32;;;;;;;5.25;1.80;;;;;;;16.23;100.00;100585.53;4955759;28;20142;-90
2022/09/22 07:41:17;;;;;;;4.43;1.65;;;;;;;16.31;100.00;100601.75;4972384;28;20054;-90
2022/09/22 07:47:02;;;;;;;5.85;1.67;;;;;;;16.54;100.00;100605.56;4965506;28;20047;-91
2022/09/22 07:49:42;;;;;;;4.20;1.40;;;;;;;16.39;100.00;100577.47;4972554;28;20108;-90
2022/09/22 07:52:25;;;;;;;4.32;1.20;;;;;;;16.49;100.00;100599.72;4962764;28;20243;-91
2022/09/22 07:54:56;;;;;;;2.80;1.20;;;;;;;16.36;100.00;100610.25;4973518;28;20053;-90
2022/09/22 07:57:37;;;;;;;5.38;1.63;;;;;;;16.04;100.00;100549.75;4973062;28;20051;-89
2022/09/22 08:00:05;;;;;;;3.40;1.30;;;;;;;16.39;100.00;100606.53;4967972;28;20060;-90
2022/09/22 08:02:53;;;;;;;3.60;1.40;;;;;;;16.45;100.00;100585.88;4973857;28;20058;-90
2022/09/22 08:05:33;;;;;;;3.78;0.90;;;;;;;16.47;100.00;100588.41;4969382;28;20033;-90
2022/09/22 08:08:15;;;;;;;3.67;1.20;;;;;;;16.25;100.00;100567.78;4968636;28;20050;-90
2022/09/22 08:11:03;;;;;;;4.40;1.20;;;;;;;16.31;100.00;100568.25;4966031;28;20054;-90
2022/09/22 08:13:55;;;;;;;2.22;1.00;;;;;;;16.63;100.00;100639.31;4975563;28;20050;-89
2022/09/22 08:16:29;;;;;;;3.75;1.38;;;;;;;16.62;100.00;100637.63;4968527;28;20081;-90
2022/09/22 08:19:12;;;;;;;6.05;1.40;;;;;;;16.51;100.00;100617.16;4967021;28;20035;-91
2022/09/22 08:21:53;;;;;;;4.30;1.25;;;;;;;16.37;100.00;100604.00;4957466;29;20498;-93
2022/09/22 08:24:29;;;;;;;2.92;1.08;;;;;;;16.57;100.00;100600.06;4952611;28;20051;-93
2022/09/22 08:27:10;;;;;;;2.42;1.10;;;;;;;15.84;100.00;100463.84;4965624;28;20110;-94
2022/09/22 08:29:51;;;;;;;2.17;1.08;;;;;;;16.24;100.00;100559.03;4980246;28;20065;-94
2022/09/22 08:32:35;;;;;;;6.00;1.45;;;;;;;16.53;100.00;100603.84;4957870;29;20051;-93
2022/09/22 08:35:16;;;;;;;;;;;;;;;16.65;100.00;100634.78;4959428;28;20043;-91
2022/09/22 08:37:57;;;;;;;2.30;0.98;;;;;;;16.32;100.00;100575.25;4979340;28;19965;-94
2022/09/22 08:40:42;;;;;;;3.38;1.25;;;;;;;16.66;100.00;100625.91;4979939;28;20103;-94
2022/09/22 08:43:22;;;;;;;5.47;1.48;;;;;;;15.71;100.00;100479.59;4979943;28;20123;-93
2022/09/22 08:46:04;;;;;;;2.47;1.10;;;;;;;16.03;100.00;100512.88;4993840;28;20037;-93
2022/09/22 08:52:00;;;;;;;3.03;1.00;;;;;;;15.93;100.00;100494.94;4983356;28;20030;-94
2022/09/22 08:54:43;;;;;;;4.00;1.08;;;;;;;16.31;100.00;100568.25;4979080;28;20146;-94
2022/09/22 08:58:19;;;;;;;3.92;1.08;;;;;;;16.79;100.00;100618.03;4968277;28;20050;-94
2022/09/22 09:01:21;;;;;;;2.40;0.90;;;;;;;15.98;100.00;100493.81;4953026;28;20061;-95
2022/09/22 09:04:19;;;;;;;2.85;1.10;;;;;;;16.99;100.00;100655.56;4933774;29;20047;-94
2022/09/22 09:07:27;;;;;;;1.67;1.00;;;;;;;16.86;100.00;100619.34;4959834;29;20047;-92
2022/09/22 09:10:37;;;;;;;4.80;1.10;;;;;;;17.02;100.00;100652.72;4961396;29;20039;-95
2022/09/22 09:13:55;;;;;;;1.80;0.90;;;;;;;17.02;100.00;100642.16;4976786;28;20047;-94
2022/09/22 09:16:55;;;;;;;3.38;1.00;;;;;;;16.81;100.00;100596.78;4971851;28;20497;-86
2022/09/22 09:19:33;;;;;;;1.73;0.85;;;;;;;17.06;100.00;100644.47;4974068;28;20050;-86
2022/09/22 09:22:06;;;;;;;3.38;1.00;;;;;;;16.98;100.00;100620.34;4973798;28;20043;-87
2022/09/22 09:24:40;;;;;;;1.65;0.90;;;;;;;16.75;100.00;100594.53;4969193;28;20058;-89
2022/09/22 09:27:27;;;;;;;1.15;0.80;;;;;;;17.04;100.00;100640.25;4961038;28;20037;-88
2022/09/22 09:30:17;;;;;;;2.13;0.82;;;;;;;16.80;100.00;100624.16;4971965;28;20093;-85
2022/09/22 09:32:52;;;;;;;2.65;1.20;;;;;;;16.96;100.00;100647.81;4966909;28;20161;-87
2022/09/22 09:35:44;;;;;;;3.25;0.93;;;;;;;16.94;100.00;100645.28;4959345;28;20050;-86
2022/09/22 09:38:14;;;;;;;3.47;1.30;;;;;;;16.65;100.00;100602.22;4963480;28;20074;-87
2022/09/22 09:40:47;;;;;;;2.10;0.90;;;;;;;16.94;100.00;100632.06;4964376;28;20051;-86
2022/09/22 09:43:14;;;;;;;;;;;;;;;17.24;100.00;100657.44;4967692;28;20058;-89
2022/09/22 09:46:10;;;;;;;2.35;0.85;;;;;;;17.25;100.00;100654.69;4963242;28;19922;-88
2022/09/22 09:48:57;;;;;;;2.25;1.00;;;;;;;17.01;100.00;100628.06;4966411;28;20095;-88
2022/09/22 09:51:25;;;;;;;3.40;1.00;;;;;;;17.14;100.00;100658.97;4984775;28;20065;-89
2022/09/22 09:54:08;;;;;;;1.35;0.82;;;;;;;17.19;100.00;100651.59;4972417;28;20090;-89
2022/09/22 09:57:16;;;;;;;1.52;0.80;;;;;;;17.29;100.00;100665.91;4968371;28;20035;-88
2022/09/22 10:03:01;;;;;;;3.45;1.20;;;;;;;16.73;100.00;100617.56;4987346;28;20393;-88
2022/09/22 10:05:38;;;;;;;1.85;0.82;;;;;;;16.84;100.00;100612.47;4973298;28;20051;-90
2022/09/22 10:08:23;;;;;;;2.20;1.10;;;;;;;17.01;100.00;100640.44;4975625;28;20145;-90
2022/09/22 10:11:04;;;;;;;2.35;0.90;;;;;;;17.12;100.00;100652.94;4978961;28;20082;-87
2022/09/22 10:13:55;;;;;;;2.72;0.88;;;;;;;17.11;100.00;100646.81;4977038;28;20155;-88
2022/09/22 10:16:51;;;;;;;3.97;1.10;;;;;;;17.04;100.00;100651.66;4958231;29;20051;-89
2022/09/22 10:19:33;;;;;;;2.55;1.00;;;;;;;17.01;100.00;100629.84;4975697;28;20057;-89
2022/09/22 10:22:22;;;;;;;2.03;0.80;;;;;;;17.36;100.00;100672.47;4984522;28;20047;-89
2022/09/22 10:24:56;;;;;;;2.67;1.02;;;;;;;17.41;100.00;100675.66;4971844;28;20039;-89
2022/09/22 10:27:25;;;;;;;1.52;0.85;;;;;;;17.28;100.00;100653.63;4960348;28;20122;-89
2022/09/22 10:30:26;;;;;;;2.15;1.00;;;;;;;17.37;100.00;100665.38;4956136;28;20035;-91
2022/09/22 10:33:07;;;;;;;2.38;0.98;;;;;;;17.35;100.00;100668.16;4965576;28;20043;-90
2022/09/22 10:36:24;;;;;;;2.25;0.90;;;;;;;17.45;100.00;100665.72;4972339;28;20078;-89
2022/09/22 10:39:16;;;;;;;1.98;0.80;;;;;;;17.37;100.00;100646.84;4946735;28;20055;-90
2022/09/22 10:41:59;;;;;;;3.03;0.90;;;;;;;17.44;100.00;100658.72;4977291;28;20046;-92
2022/09/22 10:44:40;;;;;;;1.65;0.80;;;;;;;17.18;100.00;100620.81;4982312;28;20085;-91
2022/09/22 10:47:41;;;;;;;2.15;0.77;;;;;;;17.61;100.00;100692.00;4976428;28;20062;-92
2022/09/22 10:50:50;;;;;;;2.35;1.00;;;;;;;17.68;100.00;100693.28;4976215;28;20058;-91
2022/09/22 10:54:08;;;;;;;1.10;0.70;;;;;;;17.60;100.00;100701.75;4971770;29;20055;-91
2022/09/22 10:56:53;;;;;;;3.22;0.90;;;;;;;17.23;100.00;100666.34;4968882;28;20046;-91
2022/09/22 10:59:53;;;;;;;2.03;0.90;;;;;;;17.36;100.00;100698.09;4973825;28;20075;-91
2022/09/22 11:02:39;;;;;;;2.33;0.90;;;;;;;17.22;100.00;100699.84;4958553;29;20105;-91
2022/09/22 11:12:46;;;;;;;4.38;1.42;;;;;;;17.00;100.00;100704.88;4977385;28;20044;-93
2022/09/22 11:16:12;;;;;;;2.55;1.02;;;;;;;17.04;100.00;100707.22;4963371;29;20071;-94
2022/09/22 11:19:16;;;;;;;4.60;1.13;;;;;;;16.95;100.00;100712.25;4976666;29;20051;-94
2022/09/22 11:22:22;;;;;;;2.65;1.10;;;;;;;16.48;100.00;100651.75;4963668;29;20114;-95
2022/09/22 11:25:25;;;;;;;5.55;1.35;;;;;;;16.85;100.00;100715.47;4963831;29;20039;-95
2022/09/22 11:28:19;;;;;;;4.50;1.40;;;;;;;16.13;100.00;100717.34;4963495;29;20062;-93
2022/09/22 11:31:00;;;;;;;;;;;;;;;16.07;100.00;100715.91;4961004;29;20055;-92
2022/09/22 11:34:00;;;;;;;2.63;0.98;;;;;;;16.17;100.00;100718.00;4977307;28;19929;-91
2022/09/22 11:37:24;;;;;;;2.70;1.00;;;;;;;16.05;100.00;100722.25;4979625;28;20038;-92
2022/09/22 11:40:31;;;;;;;3.08;0.90;;;;;;;15.98;100.00;100689.22;4995469;28;20062;-93
2022/09/22 11:43:30;;;;;;;2.40;1.00;;;;;;;16.09;100.00;100726.38;4981488;28;20047;-94
2022/09/22 11:46:46;;;;;;;2.00;0.80;;;;;;;15.89;100.00;100680.91;4981887;28;20043;-94
2022/09/22 11:49:54;;;;;;;3.22;1.00;;;;;;;16.37;100.00;100728.19;4975505;28;20472;-91
2022/09/22 11:52:42;;;;;;;2.47;0.95;;;;;;;16.21;100.00;100693.09;4972199;28;20045;-88
2022/09/22 11:55:28;;;;;;;4.15;1.00;;;;;;;16.50;100.00;100736.19;4962588;29;20042;-90
2022/09/22 11:58:00;;;;;;;1.65;0.80;;;;;;;16.56;100.00;100741.09;4968840;28;20437;-88
2022/09/22 12:01:06;;;;;;;5.43;1.42;;;;;;;16.05;100.00;100699.31;4961518;28;20055;-89
2022/09/22 12:04:04;;;;;;;0.95;0.80;;;;;;;16.53;100.00;100736.00;4962352;28;20726;-86
2022/09/22 12:06:50;;;;;;;4.65;1.08;;;;;;;16.04;100.00;100662.44;4960471;28;20067;-86
2022/09/22 12:09:48;;;;;;;2.47;0.90;;;;;;;16.64;100.00;100751.19;4962189;28;20061;-84
2022/09/22 12:12:41;;;;;;;2.85;0.80;;;;;;;16.42;100.00;100677.69;4953892;28;20055;-84
2022/09/22 12:15:56;;;;;;;3.95;0.82;;;;;;;16.43;100.00;100653.81;4959220;28;20462;-85
2022/09/22 12:19:12;;;;;;;6.05;0.90;;;;;;;16.94;100.00;100739.63;4937983;28;20051;-85
2022/09/22 12:22:03;;;;;;;2.40;0.90;;;;;;;17.07;100.00;100737.91;4958913;28;20058;-85
2022/09/22 12:24:31;;;;;;;1.80;0.80;;;;;;;17.02;100.00;100722.34;4967310;28;20481;-84